Terminal Aerodrome Forecast
Issued by NWS Sterling, VA

Current Version | Previous Version | Text Only | Print | Product List | Glossary Off
Versions: 1 2 3 4 5 6 7 8 9 10 11 12 13 14 15 16 17 18 19 20 21 22 23 24

000
FTUS41 KLWX 311725
TAFDCA
TAF
KDCA 311725Z 3118/0118 19006KT P6SM FEW040 SCT200
     FM312100 18006KT P6SM VCTS SCT050CB BKN200
     FM010300 18005KT P6SM SCT090 BKN200
     FM011000 30004KT P6SM SCT100 BKN150
     FM011500 35006KT P6SM BKN025 OVC080
     FM011700 35006KT P6SM BKN045 BKN080=

USA.gov is the U.S. government's official web portal to all federal, state and local government web resources and services.